Gulf Shores, AL

7:17 PM CDT on August 29, 2014 (GMT -0500)
Pensacola Naval Air Station | Change Station
CLOSE
Current Station
Airport
Location: Pensacola NAS,
Elevation: 30 ft
Nearby Weather Stations

Elev 30 ft 30.36 °N, 87.32 °W | Updated 21 minutes ago

Overcast
Overcast
78 °F
Feels Like 78 °F
N
8
Wind Variable Wind from SW

Today
High -- | Low -- °F
--% Chance of Precip.
Yesterday
High -- | Low -- °F
Precip. -- in
6:25 AM 7:17 PM
Waxing Crescent, 17% visible
Pressure 29.97 in
Visibility 10.0 miles
Clouds Scattered Clouds 7000 ft
Mostly Cloudy 9000 ft
Overcast 13000 ft
Dew Point 76 °F
Humidity 93%
Rainfall 0.06 in
Snow Depth Not available.
UV 0 out of 12
Pollen 7.60 out of 12
Air Quality Not available.
Flu Activity Not available.
METAR KNPA 292356Z 22007KT 10SM SCT070 BKN090 OVC130 26/24 A2997 RMK AO2 RAE41 TSE20 SLP149 T1 SET P0001 60006 T02560244 10322 20244 50002

More Conditions Fewer Conditions

Pressure 29.97 in
Visibility 10.0 miles
Clouds Scattered Clouds 7000 ft
Mostly Cloudy 9000 ft
Overcast 13000 ft
Dew Point 76 °F
Humidity 93%
Rainfall 0.06 in
Snow Depth Not available.
UV 0 out of 12
Pollen 7.60 out of 12
Air Quality Not available.
Flu Activity Not available.
METAR KNPA 292356Z 22007KT 10SM SCT070 BKN090 OVC130 26/24 A2997 RMK AO2 RAE41 TSE20 SLP149 T1 SET P0001 60006 T02560244 10322 20244 50002

More Conditions Fewer Conditions

10-Day Weather Forecast

Almanac

Astronomy

Aug. 29, 2014 Rise Set
Actual Time 6:25 AM CDT 7:17 PM CDT
Civil Twilight 6:01 AM CDT 7:41 PM CDT
Nautical Twilight 5:32 AM CDT 8:10 PM CDT
Astronomical Twilight 5:02 AM CDT 8:40 PM CDT
Moon 9:56 AM CDT (8/29) 9:34 PM CDT (8/29)
Length of Visible Light 13h 40m
Length of Day
12h 51m
Tomorrow will be 1m 45s shorter.
Waxing Crescent, 17% of the Moon is Illuminated
Today
Waxing Crescent
Sep 2
First Quarter
Sep 8
Full
Sep 15
Last Quarter
Sep 24
New

Today's Extremes

State Highs State Lows

Community

WunderPhotos

Upload Photos

1,748,382 photos uploaded!

Nearby

Snow Depth

Station Depth Elevation
No new snow has been reported.

Earthquake Activity

City Distance Mag. Time & Date
No recent earthquake activity has been reported nearby.
Minimum magnitude displayed is 2.5.

Coastal Water Temperatures

Place Temperature
No Stations Reporting

Nearby Weather Stations